sensor_id;sensor_type;location;lat;lon;timestamp;temperature;humidity
18703;DHT22;9481;48.796;9.210;2022-07-29T00:00:43;25.00;54.00
18703;DHT22;9481;48.796;9.210;2022-07-29T00:03:12;25.00;54.00
18703;DHT22;9481;48.796;9.210;2022-07-29T00:05:39;25.00;54.00
18703;DHT22;9481;48.796;9.210;2022-07-29T00:08:09;24.90;54.20
18703;DHT22;9481;48.796;9.210;2022-07-29T00:10:35;24.90;54.30
18703;DHT22;9481;48.796;9.210;2022-07-29T00:13:01;24.90;54.40
18703;DHT22;9481;48.796;9.210;2022-07-29T00:15:27;24.90;54.50
18703;DHT22;9481;48.796;9.210;2022-07-29T00:17:53;24.90;54.60
18703;DHT22;9481;48.796;9.210;2022-07-29T00:20:19;24.90;54.70
18703;DHT22;9481;48.796;9.210;2022-07-29T00:22:45;24.90;54.90
18703;DHT22;9481;48.796;9.210;2022-07-29T00:25:11;24.90;55.00
18703;DHT22;9481;48.796;9.210;2022-07-29T00:27:38;24.90;55.20
18703;DHT22;9481;48.796;9.210;2022-07-29T00:30:05;24.80;55.10
18703;DHT22;9481;48.796;9.210;2022-07-29T00:32:32;24.80;55.20
18703;DHT22;9481;48.796;9.210;2022-07-29T00:34:57;24.80;55.20
18703;DHT22;9481;48.796;9.210;2022-07-29T00:37:42;24.70;55.20
18703;DHT22;9481;48.796;9.210;2022-07-29T00:40:08;24.70;55.20
18703;DHT22;9481;48.796;9.210;2022-07-29T00:42:45;24.60;55.40
18703;DHT22;9481;48.796;9.210;2022-07-29T00:45:13;24.60;56.00
18703;DHT22;9481;48.796;9.210;2022-07-29T00:47:40;24.60;55.60
18703;DHT22;9481;48.796;9.210;2022-07-29T00:50:07;24.60;55.80
18703;DHT22;9481;48.796;9.210;2022-07-29T00:52:36;24.60;55.80
18703;DHT22;9481;48.796;9.210;2022-07-29T00:55:04;24.60;56.00
18703;DHT22;9481;48.796;9.210;2022-07-29T00:57:32;24.60;55.90
18703;DHT22;9481;48.796;9.210;2022-07-29T00:59:58;24.60;55.80
18703;DHT22;9481;48.796;9.210;2022-07-29T01:02:24;24.60;55.80
18703;DHT22;9481;48.796;9.210;2022-07-29T01:04:50;24.60;55.80
18703;DHT22;9481;48.796;9.210;2022-07-29T01:07:17;24.50;55.70
18703;DHT22;9481;48.796;9.210;2022-07-29T01:09:44;24.50;55.80
18703;DHT22;9481;48.796;9.210;2022-07-29T01:12:13;24.50;55.90
18703;DHT22;9481;48.796;9.210;2022-07-29T01:14:42;24.50;55.90
18703;DHT22;9481;48.796;9.210;2022-07-29T01:17:21;24.50;55.90
18703;DHT22;9481;48.796;9.210;2022-07-29T01:20:14;24.50;56.20
18703;DHT22;9481;48.796;9.210;2022-07-29T01:22:59;24.50;56.40
18703;DHT22;9481;48.796;9.210;2022-07-29T01:31:18;24.50;56.50
18703;DHT22;9481;48.796;9.210;2022-07-29T01:33:50;24.40;55.90
18703;DHT22;9481;48.796;9.210;2022-07-29T01:36:30;24.40;56.00
18703;DHT22;9481;48.796;9.210;2022-07-29T01:39:11;24.40;56.10
18703;DHT22;9481;48.796;9.210;2022-07-29T01:42:09;24.40;56.50
18703;DHT22;9481;48.796;9.210;2022-07-29T01:45:15;24.30;56.20
18703;DHT22;9481;48.796;9.210;2022-07-29T01:51:17;24.30;56.50
18703;DHT22;9481;48.796;9.210;2022-07-29T01:53:55;24.30;56.40
18703;DHT22;9481;48.796;9.210;2022-07-29T01:56:31;24.20;56.20
18703;DHT22;9481;48.796;9.210;2022-07-29T01:58:59;24.20;56.20
18703;DHT22;9481;48.796;9.210;2022-07-29T02:01:27;24.20;56.20
18703;DHT22;9481;48.796;9.210;2022-07-29T02:03:57;24.20;56.30
18703;DHT22;9481;48.796;9.210;2022-07-29T02:06:27;24.10;56.30
18703;DHT22;9481;48.796;9.210;2022-07-29T02:08:57;24.10;56.30
18703;DHT22;9481;48.796;9.210;2022-07-29T02:11:24;24.10;56.30
18703;DHT22;9481;48.796;9.210;2022-07-29T02:13:52;24.10;56.10
18703;DHT22;9481;48.796;9.210;2022-07-29T02:16:21;24.10;56.20
18703;DHT22;9481;48.796;9.210;2022-07-29T02:18:52;24.10;56.20
18703;DHT22;9481;48.796;9.210;2022-07-29T02:21:24;24.10;56.40
18703;DHT22;9481;48.796;9.210;2022-07-29T02:23:52;24.10;56.20
18703;DHT22;9481;48.796;9.210;2022-07-29T02:26:20;24.10;56.00
18703;DHT22;9481;48.796;9.210;2022-07-29T02:28:50;24.10;56.10
18703;DHT22;9481;48.796;9.210;2022-07-29T02:31:19;24.10;55.70
18703;DHT22;9481;48.796;9.210;2022-07-29T02:33:48;24.10;56.10
18703;DHT22;9481;48.796;9.210;2022-07-29T02:36:16;24.10;56.10
18703;DHT22;9481;48.796;9.210;2022-07-29T02:38:43;24.00;56.00
18703;DHT22;9481;48.796;9.210;2022-07-29T02:41:45;24.00;56.10
18703;DHT22;9481;48.796;9.210;2022-07-29T02:44:16;24.10;56.50
18703;DHT22;9481;48.796;9.210;2022-07-29T02:46:50;24.00;56.00
18703;DHT22;9481;48.796;9.210;2022-07-29T02:49:35;24.00;56.20
18703;DHT22;9481;48.796;9.210;2022-07-29T02:52:16;24.00;56.40
18703;DHT22;9481;48.796;9.210;2022-07-29T02:54:51;24.00;56.20
18703;DHT22;9481;48.796;9.210;2022-07-29T02:57:41;24.00;56.20
18703;DHT22;9481;48.796;9.210;2022-07-29T03:00:10;24.00;56.60
18703;DHT22;9481;48.796;9.210;2022-07-29T03:02:39;23.90;56.00
18703;DHT22;9481;48.796;9.210;2022-07-29T03:05:12;23.90;56.10
18703;DHT22;9481;48.796;9.210;2022-07-29T03:07:46;23.90;56.30
18703;DHT22;9481;48.796;9.210;2022-07-29T03:10:15;23.90;56.40
18703;DHT22;9481;48.796;9.210;2022-07-29T03:12:41;23.90;56.30
18703;DHT22;9481;48.796;9.210;2022-07-29T03:15:09;23.90;56.30
18703;DHT22;9481;48.796;9.210;2022-07-29T03:17:35;23.90;56.30
18703;DHT22;9481;48.796;9.210;2022-07-29T03:20:03;23.90;56.30
18703;DHT22;9481;48.796;9.210;2022-07-29T03:22:29;23.80;56.20
18703;DHT22;9481;48.796;9.210;2022-07-29T03:24:55;23.90;56.40
18703;DHT22;9481;48.796;9.210;2022-07-29T03:27:21;23.80;56.40
18703;DHT22;9481;48.796;9.210;2022-07-29T03:29:47;23.80;56.40
18703;DHT22;9481;48.796;9.210;2022-07-29T03:32:12;23.80;56.50
18703;DHT22;9481;48.796;9.210;2022-07-29T03:34:38;23.80;56.50
18703;DHT22;9481;48.796;9.210;2022-07-29T03:37:05;23.80;56.50
18703;DHT22;9481;48.796;9.210;2022-07-29T03:39:36;23.80;56.50
18703;DHT22;9481;48.796;9.210;2022-07-29T03:42:06;23.80;56.70
18703;DHT22;9481;48.796;9.210;2022-07-29T03:44:36;23.80;56.60
18703;DHT22;9481;48.796;9.210;2022-07-29T03:47:04;23.80;56.60
18703;DHT22;9481;48.796;9.210;2022-07-29T03:49:32;23.80;56.70
18703;DHT22;9481;48.796;9.210;2022-07-29T03:52:01;23.80;56.60
18703;DHT22;9481;48.796;9.210;2022-07-29T03:54:27;23.80;56.60
18703;DHT22;9481;48.796;9.210;2022-07-29T03:56:54;23.80;56.70
18703;DHT22;9481;48.796;9.210;2022-07-29T03:59:24;23.70;56.60
18703;DHT22;9481;48.796;9.210;2022-07-29T04:01:51;23.70;56.60
18703;DHT22;9481;48.796;9.210;2022-07-29T04:04:18;23.70;56.60
18703;DHT22;9481;48.796;9.210;2022-07-29T04:06:45;23.70;56.60
18703;DHT22;9481;48.796;9.210;2022-07-29T04:09:12;23.70;56.70
18703;DHT22;9481;48.796;9.210;2022-07-29T04:11:42;23.70;56.60
18703;DHT22;9481;48.796;9.210;2022-07-29T04:14:08;23.70;56.80
18703;DHT22;9481;48.796;9.210;2022-07-29T04:16:34;23.70;56.60
18703;DHT22;9481;48.796;9.210;2022-07-29T04:18:59;23.60;56.60
18703;DHT22;9481;48.796;9.210;2022-07-29T04:21:25;23.60;56.70
18703;DHT22;9481;48.796;9.210;2022-07-29T04:23:51;23.60;56.80
18703;DHT22;9481;48.796;9.210;2022-07-29T04:26:17;23.60;56.90
18703;DHT22;9481;48.796;9.210;2022-07-29T04:28:44;23.60;56.90
18703;DHT22;9481;48.796;9.210;2022-07-29T04:31:12;23.60;57.00
18703;DHT22;9481;48.796;9.210;2022-07-29T04:33:38;23.60;57.00
18703;DHT22;9481;48.796;9.210;2022-07-29T04:36:05;23.60;56.90
18703;DHT22;9481;48.796;9.210;2022-07-29T04:38:30;23.60;57.00
18703;DHT22;9481;48.796;9.210;2022-07-29T04:40:56;23.60;57.00
18703;DHT22;9481;48.796;9.210;2022-07-29T04:43:22;23.50;56.80
18703;DHT22;9481;48.796;9.210;2022-07-29T04:45:47;23.50;56.90
18703;DHT22;9481;48.796;9.210;2022-07-29T04:48:13;23.50;57.00
18703;DHT22;9481;48.796;9.210;2022-07-29T04:50:39;23.50;57.10
18703;DHT22;9481;48.796;9.210;2022-07-29T04:53:06;23.60;57.30
18703;DHT22;9481;48.796;9.210;2022-07-29T04:55:32;23.60;57.30
18703;DHT22;9481;48.796;9.210;2022-07-29T04:57:59;23.70;57.30
18703;DHT22;9481;48.796;9.210;2022-07-29T05:00:24;23.70;58.00
18703;DHT22;9481;48.796;9.210;2022-07-29T05:02:50;23.70;57.30
18703;DHT22;9481;48.796;9.210;2022-07-29T05:05:16;23.70;57.30
18703;DHT22;9481;48.796;9.210;2022-07-29T05:07:41;23.70;57.20
18703;DHT22;9481;48.796;9.210;2022-07-29T05:10:08;23.80;57.20
18703;DHT22;9481;48.796;9.210;2022-07-29T05:12:34;23.80;57.20
18703;DHT22;9481;48.796;9.210;2022-07-29T05:15:00;23.80;57.20
18703;DHT22;9481;48.796;9.210;2022-07-29T05:17:26;23.90;57.20
18703;DHT22;9481;48.796;9.210;2022-07-29T05:19:52;24.00;57.20
18703;DHT22;9481;48.796;9.210;2022-07-29T05:22:19;24.00;56.90
18703;DHT22;9481;48.796;9.210;2022-07-29T05:24:45;24.10;56.90
18703;DHT22;9481;48.796;9.210;2022-07-29T05:27:11;24.10;56.80
18703;DHT22;9481;48.796;9.210;2022-07-29T05:29:38;24.10;56.70
18703;DHT22;9481;48.796;9.210;2022-07-29T05:32:05;24.10;56.60
18703;DHT22;9481;48.796;9.210;2022-07-29T05:34:31;24.10;56.70
18703;DHT22;9481;48.796;9.210;2022-07-29T05:36:57;24.10;56.80
18703;DHT22;9481;48.796;9.210;2022-07-29T05:39:23;24.10;56.90
18703;DHT22;9481;48.796;9.210;2022-07-29T05:41:49;24.10;56.90
18703;DHT22;9481;48.796;9.210;2022-07-29T05:44:15;24.10;57.10
18703;DHT22;9481;48.796;9.210;2022-07-29T05:46:40;24.20;57.20
18703;DHT22;9481;48.796;9.210;2022-07-29T05:49:06;24.20;57.10
18703;DHT22;9481;48.796;9.210;2022-07-29T05:51:35;24.20;57.20
18703;DHT22;9481;48.796;9.210;2022-07-29T05:54:01;24.30;57.30
18703;DHT22;9481;48.796;9.210;2022-07-29T05:56:27;24.30;57.30
18703;DHT22;9481;48.796;9.210;2022-07-29T05:58:53;24.30;57.30
18703;DHT22;9481;48.796;9.210;2022-07-29T06:01:19;24.40;57.30
18703;DHT22;9481;48.796;9.210;2022-07-29T06:03:45;24.40;57.10
18703;DHT22;9481;48.796;9.210;2022-07-29T06:06:11;24.50;57.20
18703;DHT22;9481;48.796;9.210;2022-07-29T06:08:37;24.60;57.10
18703;DHT22;9481;48.796;9.210;2022-07-29T06:11:04;24.70;56.90
18703;DHT22;9481;48.796;9.210;2022-07-29T06:13:31;24.70;56.70
18703;DHT22;9481;48.796;9.210;2022-07-29T06:15:57;24.80;56.60
18703;DHT22;9481;48.796;9.210;2022-07-29T06:18:22;24.80;56.60
18703;DHT22;9481;48.796;9.210;2022-07-29T06:20:51;24.80;56.50
18703;DHT22;9481;48.796;9.210;2022-07-29T06:23:18;24.90;56.20
18703;DHT22;9481;48.796;9.210;2022-07-29T06:25:45;24.80;55.90
18703;DHT22;9481;48.796;9.210;2022-07-29T06:28:11;24.90;56.10
18703;DHT22;9481;48.796;9.210;2022-07-29T06:30:38;25.00;56.20
18703;DHT22;9481;48.796;9.210;2022-07-29T06:33:05;25.00;56.10
18703;DHT22;9481;48.796;9.210;2022-07-29T06:35:33;25.10;55.80
18703;DHT22;9481;48.796;9.210;2022-07-29T06:38:01;25.20;55.40
18703;DHT22;9481;48.796;9.210;2022-07-29T06:40:27;25.30;55.00
18703;DHT22;9481;48.796;9.210;2022-07-29T06:43:12;25.30;54.50
18703;DHT22;9481;48.796;9.210;2022-07-29T06:45:38;25.40;54.10
18703;DHT22;9481;48.796;9.210;2022-07-29T06:48:06;25.50;54.10
18703;DHT22;9481;48.796;9.210;2022-07-29T06:50:32;25.50;54.10
18703;DHT22;9481;48.796;9.210;2022-07-29T06:52:57;25.50;54.10
18703;DHT22;9481;48.796;9.210;2022-07-29T06:55:23;25.60;54.00
18703;DHT22;9481;48.796;9.210;2022-07-29T06:57:49;25.70;54.00
18703;DHT22;9481;48.796;9.210;2022-07-29T07:00:15;25.70;53.70
18703;DHT22;9481;48.796;9.210;2022-07-29T07:02:41;25.80;53.70
18703;DHT22;9481;48.796;9.210;2022-07-29T07:05:07;25.70;53.40
18703;DHT22;9481;48.796;9.210;2022-07-29T07:07:32;25.80;53.50
18703;DHT22;9481;48.796;9.210;2022-07-29T07:09:58;25.80;53.70
18703;DHT22;9481;48.796;9.210;2022-07-29T07:12:24;25.80;53.70
18703;DHT22;9481;48.796;9.210;2022-07-29T07:14:49;25.90;53.70
18703;DHT22;9481;48.796;9.210;2022-07-29T07:17:15;25.90;53.50
18703;DHT22;9481;48.796;9.210;2022-07-29T07:19:41;25.90;53.70
18703;DHT22;9481;48.796;9.210;2022-07-29T07:22:06;25.90;53.70
18703;DHT22;9481;48.796;9.210;2022-07-29T07:24:32;26.00;53.80
18703;DHT22;9481;48.796;9.210;2022-07-29T07:26:58;26.00;54.00
18703;DHT22;9481;48.796;9.210;2022-07-29T07:29:23;26.10;54.00
18703;DHT22;9481;48.796;9.210;2022-07-29T07:31:49;26.20;53.90
18703;DHT22;9481;48.796;9.210;2022-07-29T07:34:15;26.20;53.70
18703;DHT22;9481;48.796;9.210;2022-07-29T07:36:40;26.30;53.70
18703;DHT22;9481;48.796;9.210;2022-07-29T07:39:06;26.30;53.30
18703;DHT22;9481;48.796;9.210;2022-07-29T07:41:32;26.30;53.20
18703;DHT22;9481;48.796;9.210;2022-07-29T07:43:58;26.30;53.10
18703;DHT22;9481;48.796;9.210;2022-07-29T07:46:24;26.30;53.00
18703;DHT22;9481;48.796;9.210;2022-07-29T07:48:49;26.30;53.00
18703;DHT22;9481;48.796;9.210;2022-07-29T07:51:17;26.40;53.20
18703;DHT22;9481;48.796;9.210;2022-07-29T07:53:43;26.50;53.60
18703;DHT22;9481;48.796;9.210;2022-07-29T07:56:10;26.60;53.80
18703;DHT22;9481;48.796;9.210;2022-07-29T07:58:35;26.60;53.70
18703;DHT22;9481;48.796;9.210;2022-07-29T08:01:02;26.70;53.60
18703;DHT22;9481;48.796;9.210;2022-07-29T08:03:28;26.90;53.50
18703;DHT22;9481;48.796;9.210;2022-07-29T08:05:54;26.90;54.10
18703;DHT22;9481;48.796;9.210;2022-07-29T08:08:20;27.00;52.90
18703;DHT22;9481;48.796;9.210;2022-07-29T08:10:45;27.10;52.70
18703;DHT22;9481;48.796;9.210;2022-07-29T08:13:18;27.20;52.90
18703;DHT22;9481;48.796;9.210;2022-07-29T08:15:45;27.30;53.00
18703;DHT22;9481;48.796;9.210;2022-07-29T08:18:12;27.40;52.90
18703;DHT22;9481;48.796;9.210;2022-07-29T08:20:39;27.50;52.90
18703;DHT22;9481;48.796;9.210;2022-07-29T08:23:06;27.60;52.60
18703;DHT22;9481;48.796;9.210;2022-07-29T08:25:35;27.70;52.10
18703;DHT22;9481;48.796;9.210;2022-07-29T08:28:03;27.80;52.20
18703;DHT22;9481;48.796;9.210;2022-07-29T08:30:29;27.90;51.80
18703;DHT22;9481;48.796;9.210;2022-07-29T08:32:54;28.00;51.80
18703;DHT22;9481;48.796;9.210;2022-07-29T08:35:22;28.10;51.30
18703;DHT22;9481;48.796;9.210;2022-07-29T08:37:48;28.20;51.10
18703;DHT22;9481;48.796;9.210;2022-07-29T08:40:14;28.30;51.00
18703;DHT22;9481;48.796;9.210;2022-07-29T08:42:40;28.40;51.00
18703;DHT22;9481;48.796;9.210;2022-07-29T08:45:06;28.50;50.60
18703;DHT22;9481;48.796;9.210;2022-07-29T08:47:33;28.60;50.70
18703;DHT22;9481;48.796;9.210;2022-07-29T08:49:59;28.60;50.30
18703;DHT22;9481;48.796;9.210;2022-07-29T08:52:26;28.70;50.30
18703;DHT22;9481;48.796;9.210;2022-07-29T08:54:53;28.80;50.20
18703;DHT22;9481;48.796;9.210;2022-07-29T08:57:21;28.80;50.00
18703;DHT22;9481;48.796;9.210;2022-07-29T08:59:50;28.90;49.90
18703;DHT22;9481;48.796;9.210;2022-07-29T09:02:21;29.00;50.50
18703;DHT22;9481;48.796;9.210;2022-07-29T09:04:48;29.10;50.60
18703;DHT22;9481;48.796;9.210;2022-07-29T09:07:16;29.20;50.30
18703;DHT22;9481;48.796;9.210;2022-07-29T09:09:43;29.30;50.00
18703;DHT22;9481;48.796;9.210;2022-07-29T09:12:09;29.40;50.60
18703;DHT22;9481;48.796;9.210;2022-07-29T09:14:37;29.50;49.40
18703;DHT22;9481;48.796;9.210;2022-07-29T09:17:03;29.50;48.80
18703;DHT22;9481;48.796;9.210;2022-07-29T09:19:34;29.70;48.60
18703;DHT22;9481;48.796;9.210;2022-07-29T09:22:03;29.70;48.30
18703;DHT22;9481;48.796;9.210;2022-07-29T09:27:25;30.00;48.30
18703;DHT22;9481;48.796;9.210;2022-07-29T09:30:06;30.10;47.10
18703;DHT22;9481;48.796;9.210;2022-07-29T09:33:02;30.30;47.50
18703;DHT22;9481;48.796;9.210;2022-07-29T09:35:29;30.40;47.60
18703;DHT22;9481;48.796;9.210;2022-07-29T09:37:56;30.50;48.00
18703;DHT22;9481;48.796;9.210;2022-07-29T09:40:24;30.60;47.40
18703;DHT22;9481;48.796;9.210;2022-07-29T09:42:51;30.70;47.20
18703;DHT22;9481;48.796;9.210;2022-07-29T09:47:56;30.90;46.10
18703;DHT22;9481;48.796;9.210;2022-07-29T09:50:36;30.90;46.10
18703;DHT22;9481;48.796;9.210;2022-07-29T09:53:02;31.00;46.30
18703;DHT22;9481;48.796;9.210;2022-07-29T09:55:28;31.10;47.00
18703;DHT22;9481;48.796;9.210;2022-07-29T09:58:14;31.20;46.90
18703;DHT22;9481;48.796;9.210;2022-07-29T10:00:45;31.30;46.50
18703;DHT22;9481;48.796;9.210;2022-07-29T10:03:12;31.50;46.50
18703;DHT22;9481;48.796;9.210;2022-07-29T10:05:39;31.50;45.70
18703;DHT22;9481;48.796;9.210;2022-07-29T10:08:07;31.60;45.40
18703;DHT22;9481;48.796;9.210;2022-07-29T10:10:37;31.70;45.10
18703;DHT22;9481;48.796;9.210;2022-07-29T10:13:14;31.70;44.70
18703;DHT22;9481;48.796;9.210;2022-07-29T10:15:42;31.70;44.50
18703;DHT22;9481;48.796;9.210;2022-07-29T10:18:12;31.70;44.50
18703;DHT22;9481;48.796;9.210;2022-07-29T10:20:39;31.80;44.20
18703;DHT22;9481;48.796;9.210;2022-07-29T10:23:05;31.70;43.90
18703;DHT22;9481;48.796;9.210;2022-07-29T10:25:31;31.70;43.60
18703;DHT22;9481;48.796;9.210;2022-07-29T10:27:58;31.60;43.80
18703;DHT22;9481;48.796;9.210;2022-07-29T10:30:25;31.60;43.90
18703;DHT22;9481;48.796;9.210;2022-07-29T10:33:08;31.50;43.90
18703;DHT22;9481;48.796;9.210;2022-07-29T10:38:44;31.50;43.90
18703;DHT22;9481;48.796;9.210;2022-07-29T10:41:43;31.40;43.60
18703;DHT22;9481;48.796;9.210;2022-07-29T10:44:22;31.30;43.20
18703;DHT22;9481;48.796;9.210;2022-07-29T10:46:49;31.10;43.20
18703;DHT22;9481;48.796;9.210;2022-07-29T10:49:18;31.10;43.40
18703;DHT22;9481;48.796;9.210;2022-07-29T10:51:57;30.90;43.50
18703;DHT22;9481;48.796;9.210;2022-07-29T10:54:46;30.80;43.40
18703;DHT22;9481;48.796;9.210;2022-07-29T10:59:48;30.60;43.40
18703;DHT22;9481;48.796;9.210;2022-07-29T11:05:03;30.40;43.60
18703;DHT22;9481;48.796;9.210;2022-07-29T11:07:32;30.20;43.70
18703;DHT22;9481;48.796;9.210;2022-07-29T11:15:16;29.70;42.00
18703;DHT22;9481;48.796;9.210;2022-07-29T11:26:18;28.60;42.60
18703;DHT22;9481;48.796;9.210;2022-07-29T11:29:17;28.20;41.90
18703;DHT22;9481;48.796;9.210;2022-07-29T11:31:47;27.80;42.50
18703;DHT22;9481;48.796;9.210;2022-07-29T11:34:32;27.40;43.10
18703;DHT22;9481;48.796;9.210;2022-07-29T11:45:20;26.20;46.60
18703;DHT22;9481;48.796;9.210;2022-07-29T11:50:26;25.90;47.20
18703;DHT22;9481;48.796;9.210;2022-07-29T11:52:57;25.80;47.70
18703;DHT22;9481;48.796;9.210;2022-07-29T11:55:24;25.60;48.10
18703;DHT22;9481;48.796;9.210;2022-07-29T11:58:00;25.60;48.70
18703;DHT22;9481;48.796;9.210;2022-07-29T12:00:30;25.50;49.70
18703;DHT22;9481;48.796;9.210;2022-07-29T12:03:10;25.40;48.80
18703;DHT22;9481;48.796;9.210;2022-07-29T12:05:39;25.40;49.20
18703;DHT22;9481;48.796;9.210;2022-07-29T12:08:11;25.30;49.20
18703;DHT22;9481;48.796;9.210;2022-07-29T12:10:39;25.30;48.80
18703;DHT22;9481;48.796;9.210;2022-07-29T12:13:07;25.20;48.70
18703;DHT22;9481;48.796;9.210;2022-07-29T12:15:33;25.20;48.80
18703;DHT22;9481;48.796;9.210;2022-07-29T12:18:10;25.10;48.90
18703;DHT22;9481;48.796;9.210;2022-07-29T12:20:40;25.10;49.20
18703;DHT22;9481;48.796;9.210;2022-07-29T12:23:07;25.00;49.60
18703;DHT22;9481;48.796;9.210;2022-07-29T12:25:34;24.90;50.20
18703;DHT22;9481;48.796;9.210;2022-07-29T12:28:04;24.90;50.80
18703;DHT22;9481;48.796;9.210;2022-07-29T12:30:45;24.90;51.30
18703;DHT22;9481;48.796;9.210;2022-07-29T12:35:52;24.90;52.00
18703;DHT22;9481;48.796;9.210;2022-07-29T12:38:20;24.90;53.60
18703;DHT22;9481;48.796;9.210;2022-07-29T12:40:47;24.90;52.60
18703;DHT22;9481;48.796;9.210;2022-07-29T12:43:19;25.00;52.60
18703;DHT22;9481;48.796;9.210;2022-07-29T12:45:50;25.00;53.20
18703;DHT22;9481;48.796;9.210;2022-07-29T12:48:32;25.00;53.20
18703;DHT22;9481;48.796;9.210;2022-07-29T12:51:04;25.00;53.50
18703;DHT22;9481;48.796;9.210;2022-07-29T12:53:32;25.10;53.10
18703;DHT22;9481;48.796;9.210;2022-07-29T12:55:58;25.10;53.20
18703;DHT22;9481;48.796;9.210;2022-07-29T12:58:38;25.10;53.00
18703;DHT22;9481;48.796;9.210;2022-07-29T13:03:47;25.20;53.20
18703;DHT22;9481;48.796;9.210;2022-07-29T13:06:34;25.30;53.80
18703;DHT22;9481;48.796;9.210;2022-07-29T13:09:18;25.30;54.40
18703;DHT22;9481;48.796;9.210;2022-07-29T13:11:50;25.30;54.60
18703;DHT22;9481;48.796;9.210;2022-07-29T13:14:38;25.40;54.80
18703;DHT22;9481;48.796;9.210;2022-07-29T13:17:18;25.40;55.80
18703;DHT22;9481;48.796;9.210;2022-07-29T13:20:05;25.40;54.50
18703;DHT22;9481;48.796;9.210;2022-07-29T13:22:34;25.40;54.50
18703;DHT22;9481;48.796;9.210;2022-07-29T13:25:01;25.40;54.60
18703;DHT22;9481;48.796;9.210;2022-07-29T13:27:29;25.40;54.90
18703;DHT22;9481;48.796;9.210;2022-07-29T13:29:57;25.30;55.10
18703;DHT22;9481;48.796;9.210;2022-07-29T13:32:27;25.30;55.40
18703;DHT22;9481;48.796;9.210;2022-07-29T13:34:57;25.20;55.30
18703;DHT22;9481;48.796;9.210;2022-07-29T13:37:26;25.20;55.40
18703;DHT22;9481;48.796;9.210;2022-07-29T13:39:55;25.20;55.60
18703;DHT22;9481;48.796;9.210;2022-07-29T13:42:21;25.20;56.20
18703;DHT22;9481;48.796;9.210;2022-07-29T13:44:48;25.20;56.40
18703;DHT22;9481;48.796;9.210;2022-07-29T13:47:16;25.20;56.40
18703;DHT22;9481;48.796;9.210;2022-07-29T13:49:42;25.20;56.60
18703;DHT22;9481;48.796;9.210;2022-07-29T13:52:08;25.20;56.80
18703;DHT22;9481;48.796;9.210;2022-07-29T13:54:34;25.30;57.10
18703;DHT22;9481;48.796;9.210;2022-07-29T13:57:03;25.30;57.20
18703;DHT22;9481;48.796;9.210;2022-07-29T13:59:29;25.40;57.40
18703;DHT22;9481;48.796;9.210;2022-07-29T14:01:55;25.50;57.80
18703;DHT22;9481;48.796;9.210;2022-07-29T14:04:20;25.50;57.90
18703;DHT22;9481;48.796;9.210;2022-07-29T14:06:48;25.60;57.80
18703;DHT22;9481;48.796;9.210;2022-07-29T14:09:14;25.60;57.70
18703;DHT22;9481;48.796;9.210;2022-07-29T14:11:41;25.70;57.80
18703;DHT22;9481;48.796;9.210;2022-07-29T14:14:06;25.80;57.50
18703;DHT22;9481;48.796;9.210;2022-07-29T14:16:32;25.80;57.50
18703;DHT22;9481;48.796;9.210;2022-07-29T14:18:58;25.90;57.30
18703;DHT22;9481;48.796;9.210;2022-07-29T14:21:24;25.90;57.20
18703;DHT22;9481;48.796;9.210;2022-07-29T14:23:50;26.00;56.90
18703;DHT22;9481;48.796;9.210;2022-07-29T14:26:17;26.10;56.80
18703;DHT22;9481;48.796;9.210;2022-07-29T14:28:42;26.10;57.30
18703;DHT22;9481;48.796;9.210;2022-07-29T14:31:09;26.10;57.40
18703;DHT22;9481;48.796;9.210;2022-07-29T14:33:34;26.20;57.60
18703;DHT22;9481;48.796;9.210;2022-07-29T14:36:00;26.20;57.50
18703;DHT22;9481;48.796;9.210;2022-07-29T14:38:26;26.20;57.60
18703;DHT22;9481;48.796;9.210;2022-07-29T14:40:51;26.20;57.40
18703;DHT22;9481;48.796;9.210;2022-07-29T14:43:17;26.20;57.40
18703;DHT22;9481;48.796;9.210;2022-07-29T14:45:43;26.20;57.50
18703;DHT22;9481;48.796;9.210;2022-07-29T14:48:08;26.20;57.60
18703;DHT22;9481;48.796;9.210;2022-07-29T14:50:34;26.20;57.80
18703;DHT22;9481;48.796;9.210;2022-07-29T14:53:00;26.30;58.10
18703;DHT22;9481;48.796;9.210;2022-07-29T14:55:26;26.20;58.00
18703;DHT22;9481;48.796;9.210;2022-07-29T14:57:52;26.30;58.30
18703;DHT22;9481;48.796;9.210;2022-07-29T15:00:19;26.30;58.60
18703;DHT22;9481;48.796;9.210;2022-07-29T15:02:46;26.40;58.90
18703;DHT22;9481;48.796;9.210;2022-07-29T15:05:13;26.40;58.80
18703;DHT22;9481;48.796;9.210;2022-07-29T15:07:39;26.40;58.70
18703;DHT22;9481;48.796;9.210;2022-07-29T15:10:05;26.40;58.70
18703;DHT22;9481;48.796;9.210;2022-07-29T15:12:31;26.40;58.70
18703;DHT22;9481;48.796;9.210;2022-07-29T15:14:58;26.50;58.50
18703;DHT22;9481;48.796;9.210;2022-07-29T15:17:24;26.50;58.40
18703;DHT22;9481;48.796;9.210;2022-07-29T15:19:50;26.50;58.30
18703;DHT22;9481;48.796;9.210;2022-07-29T15:22:15;26.50;58.50
18703;DHT22;9481;48.796;9.210;2022-07-29T15:24:41;26.50;58.30
18703;DHT22;9481;48.796;9.210;2022-07-29T15:27:07;26.50;58.50
18703;DHT22;9481;48.796;9.210;2022-07-29T15:29:39;26.50;58.00
18703;DHT22;9481;48.796;9.210;2022-07-29T15:32:09;26.40;57.40
18703;DHT22;9481;48.796;9.210;2022-07-29T15:34:36;26.40;57.20
18703;DHT22;9481;48.796;9.210;2022-07-29T15:37:02;26.40;57.00
18703;DHT22;9481;48.796;9.210;2022-07-29T15:39:28;26.40;56.80
18703;DHT22;9481;48.796;9.210;2022-07-29T15:41:53;26.30;56.70
18703;DHT22;9481;48.796;9.210;2022-07-29T15:44:19;26.30;56.60
18703;DHT22;9481;48.796;9.210;2022-07-29T15:46:46;26.30;56.50
18703;DHT22;9481;48.796;9.210;2022-07-29T15:49:32;26.30;56.60
18703;DHT22;9481;48.796;9.210;2022-07-29T15:52:05;26.30;56.50
18703;DHT22;9481;48.796;9.210;2022-07-29T15:54:34;26.30;56.60
18703;DHT22;9481;48.796;9.210;2022-07-29T15:57:05;26.30;56.70
18703;DHT22;9481;48.796;9.210;2022-07-29T15:59:32;26.30;56.70
18703;DHT22;9481;48.796;9.210;2022-07-29T16:01:59;26.30;56.70
18703;DHT22;9481;48.796;9.210;2022-07-29T16:04:26;26.30;56.80
18703;DHT22;9481;48.796;9.210;2022-07-29T16:06:52;26.30;57.00
18703;DHT22;9481;48.796;9.210;2022-07-29T16:09:19;26.30;57.00
18703;DHT22;9481;48.796;9.210;2022-07-29T16:11:45;26.30;56.90
18703;DHT22;9481;48.796;9.210;2022-07-29T16:14:13;26.30;56.80
18703;DHT22;9481;48.796;9.210;2022-07-29T16:16:39;26.30;57.60
18703;DHT22;9481;48.796;9.210;2022-07-29T16:19:05;26.40;57.00
18703;DHT22;9481;48.796;9.210;2022-07-29T16:21:31;26.40;57.10
18703;DHT22;9481;48.796;9.210;2022-07-29T16:24:00;26.40;57.00
18703;DHT22;9481;48.796;9.210;2022-07-29T16:26:26;26.40;57.20
18703;DHT22;9481;48.796;9.210;2022-07-29T16:28:52;26.30;57.10
18703;DHT22;9481;48.796;9.210;2022-07-29T16:31:18;26.30;57.40
18703;DHT22;9481;48.796;9.210;2022-07-29T16:33:50;26.30;57.50
18703;DHT22;9481;48.796;9.210;2022-07-29T16:36:17;26.30;57.60
18703;DHT22;9481;48.796;9.210;2022-07-29T16:38:44;26.30;57.70
18703;DHT22;9481;48.796;9.210;2022-07-29T16:41:10;26.30;57.80
18703;DHT22;9481;48.796;9.210;2022-07-29T16:43:36;26.30;57.80
18703;DHT22;9481;48.796;9.210;2022-07-29T16:46:01;26.30;58.00
18703;DHT22;9481;48.796;9.210;2022-07-29T16:48:27;26.30;58.80